Time;durP1;ratioP1;P1;durP2;ratioP2;P2;SDS_P1;SDS_P2;PMS_P1;PMS_P2;Temp;Humidity;BMP_temperature;BMP_pressure;BME280_temperature;BME280_humidity;BME280_pressure;Samples;Min_cycle;Max_cycle;Signal;HPM_P1;HPM_P2
2022/01/17 00:01:26;;;;;;;14.93;13.73;;;;;;;23.31;24.02;95553.97;7297975;19;137679;-51
2022/01/17 00:03:52;;;;;;;15.50;14.10;;;;;;;23.31;24.27;95553.97;7289274;19;139206;-51
2022/01/17 00:06:17;;;;;;;14.97;13.77;;;;;;;23.30;24.41;95547.06;7300864;19;136820;-51
2022/01/17 00:08:44;;;;;;;14.63;13.40;;;;;;;23.31;23.73;95551.31;7300278;19;136920;-51
2022/01/17 00:11:11;;;;;;;15.23;14.00;;;;;;;23.31;23.60;95545.19;7301078;19;137772;-50
2022/01/17 00:13:39;;;;;;;15.30;14.10;;;;;;;23.31;23.73;95548.63;7287574;19;138633;-51
2022/01/17 00:16:10;;;;;;;15.10;13.90;;;;;;;23.31;23.59;95545.97;7298975;19;137528;-51
2022/01/17 00:21:03;;;;;;;14.97;13.77;;;;;;;23.31;23.91;95547.84;7299268;19;137303;-51
2022/01/17 00:23:28;;;;;;;14.90;13.50;;;;;;;23.31;23.43;95543.31;7299075;19;136945;-50
2022/01/17 00:25:54;;;;;;;16.03;14.73;;;;;;;23.30;24.18;95551.59;7286990;19;137087;-50
2022/01/17 00:28:19;;;;;;;14.97;13.67;;;;;;;23.31;24.05;95542.50;7300456;19;137361;-50
2022/01/17 00:30:46;;;;;;;13.90;12.70;;;;;;;23.31;24.02;95553.19;7298047;19;137203;-48
2022/01/17 00:33:11;;;;;;;13.73;12.63;;;;;;;23.31;23.41;95548.63;7300632;19;138095;-51
2022/01/17 00:35:37;;;;;;;14.53;13.33;;;;;;;23.29;23.61;95548.16;7286867;19;139973;-50
2022/01/17 00:38:04;;;;;;;14.10;12.90;;;;;;;23.30;23.82;95552.38;7299678;19;137564;-51
2022/01/17 00:40:29;;;;;;;13.40;12.30;;;;;;;23.29;23.92;95556.16;7299301;19;137171;-50
2022/01/17 00:42:55;;;;;;;14.23;13.03;;;;;;;23.30;23.48;95551.59;7299132;19;138386;-50
2022/01/17 00:45:27;;;;;;;14.90;13.70;;;;;;;23.32;23.34;95560.09;7297319;19;137629;-51
2022/01/17 00:47:57;;;;;;;15.10;13.70;;;;;;;23.29;23.42;95553.47;7286149;19;140113;-50
2022/01/17 00:50:23;;;;;;;13.47;12.43;;;;;;;23.29;24.00;95555.34;7299555;19;138150;-51
2022/01/17 00:52:49;;;;;;;14.07;12.97;;;;;;;23.29;23.31;95545.47;7298231;19;137232;-51
2022/01/17 00:55:15;;;;;;;14.10;12.90;;;;;;;23.29;23.85;95552.69;7296910;19;136967;-51
2022/01/17 00:57:40;;;;;;;14.20;13.10;;;;;;;23.28;23.49;95545.78;7285635;19;138071;-51
2022/01/17 01:00:08;;;;;;;12.57;11.60;;;;;;;23.28;23.75;95549.22;7297897;19;137473;-51
2022/01/17 01:02:34;;;;;;;13.33;12.30;;;;;;;23.29;23.68;95540.16;7297981;19;137599;-51
2022/01/17 01:05:00;;;;;;;13.17;12.10;;;;;;;23.29;23.63;95550.03;7299029;19;136956;-51
2022/01/17 01:07:25;;;;;;;13.43;12.37;;;;;;;23.29;23.29;95544.69;7297784;19;136867;-50
2022/01/17 01:10:07;;;;;;;14.17;12.97;;;;;;;23.28;23.23;95543.91;7286381;19;138102;-50
2022/01/17 01:12:33;;;;;;;13.00;12.00;;;;;;;23.28;23.69;95537.78;7298082;19;138053;-54
2022/01/17 01:14:59;;;;;;;13.13;12.03;;;;;;;23.27;23.71;95537.00;7298106;19;137091;-50
2022/01/17 01:17:37;;;;;;;12.57;11.47;;;;;;;23.29;23.66;95536.69;7298350;19;137048;-51
2022/01/17 01:28:23;;;;;;;13.70;12.60;;;;;;;23.26;23.78;95513.28;7298819;19;137350;-51
2022/01/17 01:30:52;;;;;;;12.60;11.60;;;;;;;23.27;23.64;95514.88;7284950;19;139445;-51
2022/01/17 01:33:32;;;;;;;13.77;12.67;;;;;;;23.27;23.53;95514.88;7297310;19;138044;-51
2022/01/17 01:36:05;;;;;;;14.37;13.20;;;;;;;23.26;23.77;95514.06;7297554;19;139191;-50
2022/01/17 01:38:31;;;;;;;12.87;11.87;;;;;;;23.27;23.22;95515.66;7297712;19;137010;-51
2022/01/17 01:40:58;;;;;;;12.27;11.27;;;;;;;23.26;23.51;95516.75;7296544;19;137442;-51
2022/01/17 01:43:23;;;;;;;13.00;11.90;;;;;;;23.26;23.46;95518.63;7283161;19;137887;-49
2022/01/17 01:45:56;;;;;;;12.97;11.97;;;;;;;23.24;23.51;95518.91;7297848;19;138447;-50
2022/01/17 01:48:22;;;;;;;13.20;12.10;;;;;;;23.27;22.98;95514.88;7297499;19;138138;-51
2022/01/17 01:50:48;;;;;;;12.00;11.10;;;;;;;23.25;23.42;95503.72;7294712;19;137857;-50
2022/01/17 01:53:13;;;;;;;13.20;12.20;;;;;;;23.24;23.17;95516.25;7283814;19;138051;-50
2022/01/17 01:55:39;;;;;;;13.40;12.33;;;;;;;23.24;23.08;95504.81;7293479;19;139283;-51
2022/01/17 01:58:05;;;;;;;12.67;11.57;;;;;;;23.24;23.39;95510.13;7295916;19;137056;-49
2022/01/17 02:00:30;;;;;;;12.10;11.20;;;;;;;23.25;23.56;95503.72;7295629;19;137374;-51
2022/01/17 02:02:56;;;;;;;13.07;12.03;;;;;;;23.25;23.19;95506.38;7297009;19;139110;-50
2022/01/17 02:05:21;;;;;;;13.10;12.10;;;;;;;23.26;22.71;95502.63;7283606;19;137169;-51
2022/01/17 02:07:47;;;;;;;12.20;11.20;;;;;;;23.24;22.93;95496.81;7296391;19;137026;-51
2022/01/17 02:10:13;;;;;;;12.47;11.47;;;;;;;23.24;23.09;95491.47;7296900;19;137885;-50
2022/01/17 02:12:39;;;;;;;12.67;11.57;;;;;;;23.24;23.08;95494.13;7296125;19;137217;-51
2022/01/17 02:15:05;;;;;;;11.70;10.70;;;;;;;23.24;23.08;95489.59;7282817;19;136845;-51
2022/01/17 02:17:34;;;;;;;12.70;11.60;;;;;;;23.24;23.22;95483.47;7297154;19;136590;-51
2022/01/17 02:20:08;;;;;;;12.07;11.10;;;;;;;23.23;22.88;95488.00;7296954;19;138025;-51
2022/01/17 02:22:34;;;;;;;12.23;11.23;;;;;;;23.23;23.27;95485.34;7292305;19;137267;-48
2022/01/17 02:25:00;;;;;;;11.27;10.37;;;;;;;23.23;23.10;95481.91;7296308;19;136706;-50
2022/01/17 02:27:26;;;;;;;11.60;10.57;;;;;;;23.24;22.66;95478.13;7282942;19;137864;-50
2022/01/17 02:29:51;;;;;;;12.83;11.63;;;;;;;23.22;22.89;95485.66;7294770;19;137074;-50
2022/01/17 02:32:17;;;;;;;11.90;10.93;;;;;;;23.22;23.37;95489.09;7296567;19;139631;-50
2022/01/17 02:34:43;;;;;;;11.20;10.30;;;;;;;23.22;22.83;95481.09;7296428;19;137592;-51
2022/01/17 02:37:10;;;;;;;11.97;10.97;;;;;;;23.23;23.33;95485.34;7282585;19;137019;-51
2022/01/17 02:39:36;;;;;;;12.63;11.57;;;;;;;23.23;22.72;95481.91;7293763;19;139585;-50
2022/01/17 02:42:03;;;;;;;12.03;11.03;;;;;;;23.22;23.31;95477.66;7292429;19;137646;-54
2022/01/17 02:44:29;;;;;;;12.27;11.27;;;;;;;23.22;22.79;95473.09;7294344;19;137316;-51
2022/01/17 02:46:54;;;;;;;12.00;10.97;;;;;;;23.23;23.23;95487.22;7295675;19;137023;-51
2022/01/17 02:49:20;;;;;;;11.70;10.80;;;;;;;23.21;23.01;95484.84;7282035;19;138953;-50
2022/01/17 02:51:48;;;;;;;12.00;11.00;;;;;;;23.21;23.18;95484.06;7294670;19;138172;-50
2022/01/17 02:54:14;;;;;;;11.90;11.00;;;;;;;23.22;22.79;95481.09;7293568;19;136824;-50
2022/01/17 02:56:40;;;;;;;11.83;10.93;;;;;;;23.21;22.78;95479.53;7295386;19;137667;-51
2022/01/17 02:59:06;;;;;;;11.30;10.40;;;;;;;23.21;22.72;95476.06;7282938;19;138779;-50
2022/01/17 03:01:31;;;;;;;11.00;10.10;;;;;;;23.22;22.93;95480.31;7294480;19;137303;-51
2022/01/17 03:03:57;;;;;;;11.00;10.20;;;;;;;23.22;22.84;95485.66;7296015;19;136992;-51
2022/01/17 03:06:25;;;;;;;11.30;10.40;;;;;;;23.22;22.59;95480.31;7294903;19;138083;-50
2022/01/17 03:08:51;;;;;;;11.90;10.80;;;;;;;23.21;23.14;95484.06;7295427;19;137801;-50
2022/01/17 03:11:20;;;;;;;11.17;10.30;;;;;;;23.21;23.21;95474.19;7282016;19;137726;-50
2022/01/17 03:13:47;;;;;;;10.93;10.03;;;;;;;23.21;22.77;95471.53;7292328;19;137455;-51
2022/01/17 03:16:16;;;;;;;11.77;10.87;;;;;;;23.21;22.86;95468.06;7294687;19;137922;-50
2022/01/17 03:18:50;;;;;;;11.37;10.47;;;;;;;23.21;22.35;95462.75;7294804;19;137535;-51
2022/01/17 03:21:16;;;;;;;11.27;10.37;;;;;;;23.20;23.05;95469.94;7279523;19;138232;-51
2022/01/17 03:23:44;;;;;;;11.10;10.20;;;;;;;23.21;23.07;95468.06;7294744;19;137379;-52
2022/01/17 03:26:10;;;;;;;11.83;10.87;;;;;;;23.21;22.58;95470.75;7295679;19;137494;-51
2022/01/17 03:28:37;;;;;;;11.97;11.07;;;;;;;23.21;23.15;95473.41;7294875;19;137920;-51
2022/01/17 03:31:04;;;;;;;11.53;10.63;;;;;;;23.22;22.35;95480.31;7294060;19;137535;-51
2022/01/17 03:33:30;;;;;;;10.73;9.83;;;;;;;23.21;22.35;95474.19;7280876;19;136815;-51
2022/01/17 03:35:56;;;;;;;12.33;11.23;;;;;;;23.23;22.35;95471.22;7293685;19;136941;-51
2022/01/17 03:38:24;;;;;;;11.70;10.80;;;;;;;23.22;22.77;95472.31;7294534;19;136937;-51
2022/01/17 03:40:51;;;;;;;12.00;10.90;;;;;;;23.25;22.66;95485.06;7294142;19;137041;-50
2022/01/17 03:43:22;;;;;;;11.47;10.57;;;;;;;23.23;22.44;95484.56;7279641;19;137062;-51
2022/01/17 03:45:49;;;;;;;11.37;10.37;;;;;;;23.26;22.40;95483.97;7291877;19;137765;-50
2022/01/17 03:48:16;;;;;;;11.30;10.40;;;;;;;23.26;22.80;95491.97;7294021;19;137998;-50
2022/01/17 03:50:42;;;;;;;11.60;10.63;;;;;;;23.27;22.86;95485.53;7291715;19;139344;-50
2022/01/17 03:53:08;;;;;;;11.50;10.60;;;;;;;23.27;22.94;95496.22;7294379;19;136899;-50
2022/01/17 03:55:34;;;;;;;10.67;9.83;;;;;;;23.27;22.43;95498.88;7278916;19;138606;-50
2022/01/17 03:58:02;;;;;;;10.83;9.93;;;;;;;23.27;22.54;95494.34;7292889;19;137021;-50
2022/01/17 04:00:31;;;;;;;11.50;10.50;;;;;;;23.26;22.75;95497.28;7293147;19;137626;-50
2022/01/17 04:02:58;;;;;;;11.67;10.70;;;;;;;23.27;22.74;95497.00;7291407;19;139541;-50
2022/01/17 04:05:23;;;;;;;11.00;10.00;;;;;;;23.27;22.40;95494.34;7279161;19;136984;-51
2022/01/17 04:07:49;;;;;;;11.30;10.40;;;;;;;23.30;22.72;95496.41;7291245;19;139905;-50
2022/01/17 04:10:16;;;;;;;10.60;9.80;;;;;;;23.30;22.83;95492.94;7293491;19;137890;-51
2022/01/17 04:12:43;;;;;;;11.43;10.43;;;;;;;23.28;23.32;95487.91;7291883;19;136894;-49
2022/01/17 04:15:09;;;;;;;10.13;9.33;;;;;;;23.31;22.55;95494.53;7292837;19;136567;-50
2022/01/17 04:17:35;;;;;;;11.17;10.27;;;;;;;23.31;22.57;95505.19;7278880;19;137301;-49
2022/01/17 04:20:07;;;;;;;11.60;10.60;;;;;;;23.28;23.34;95495.91;7294927;19;138209;-50
2022/01/17 04:22:43;;;;;;;11.73;10.63;;;;;;;23.28;22.67;95495.91;7298521;19;137575;-49
2022/01/17 04:25:10;;;;;;;10.57;9.67;;;;;;;23.29;22.69;95494.03;7301141;19;136928;-49
2022/01/17 04:27:36;;;;;;;10.80;10.00;;;;;;;23.30;23.14;95501.72;7288047;19;137330;-49
2022/01/17 04:30:05;;;;;;;12.03;11.03;;;;;;;23.34;23.12;95516.03;7300855;19;138048;-50
2022/01/17 04:32:31;;;;;;;11.77;10.67;;;;;;;23.37;23.03;95510.16;7300133;19;137607;-49
2022/01/17 04:34:57;;;;;;;12.03;11.07;;;;;;;23.37;23.80;95507.47;7299372;19;136814;-49
2022/01/17 04:37:22;;;;;;;11.17;10.20;;;;;;;23.35;23.21;95507.00;7299751;19;137353;-49
2022/01/17 04:39:48;;;;;;;12.10;11.10;;;;;;;23.36;23.23;95508.56;7289237;19;139399;-49
2022/01/17 04:42:16;;;;;;;11.20;10.20;;;;;;;23.39;23.36;95501.84;7297702;19;137521;-49
2022/01/17 04:47:31;;;;;;;12.03;10.93;;;;;;;23.37;23.63;95493.34;7300519;19;136822;-49
2022/01/17 04:49:57;;;;;;;11.70;10.50;;;;;;;23.36;24.06;95495.25;7286609;19;138137;-49
2022/01/17 04:52:23;;;;;;;10.87;9.87;;;;;;;23.39;23.64;95485.84;7300079;19;137692;-49
2022/01/17 04:54:59;;;;;;;12.10;11.10;;;;;;;23.38;23.98;95490.41;7298480;19;137108;-48
2022/01/17 04:57:25;;;;;;;11.33;10.43;;;;;;;23.41;23.97;95491.69;7299541;19;137490;-49
2022/01/17 04:59:50;;;;;;;11.17;10.17;;;;;;;23.40;24.01;95482.09;7287528;19;138048;-49
2022/01/17 05:02:16;;;;;;;11.77;10.73;;;;;;;23.41;24.15;95481.00;7297997;19;138200;-49
2022/01/17 05:04:45;;;;;;;11.80;10.80;;;;;;;23.46;24.49;95486.22;7298966;19;137422;-49
2022/01/17 05:07:12;;;;;;;11.37;10.33;;;;;;;23.46;24.21;95488.09;7299070;19;137750;-50
2022/01/17 05:09:39;;;;;;;11.70;10.63;;;;;;;23.49;24.14;95488.31;7298943;19;137323;-49
2022/01/17 05:12:06;;;;;;;9.93;9.13;;;;;;;23.49;24.45;95477.63;7285441;19;137520;-50
2022/01/17 05:14:31;;;;;;;11.90;10.80;;;;;;;23.49;24.30;95488.31;7298666;19;138618;-49
2022/01/17 05:17:07;;;;;;;12.07;10.97;;;;;;;23.50;24.46;95481.88;7298885;19;138217;-48
2022/01/17 05:19:48;;;;;;;11.50;10.33;;;;;;;23.51;24.54;95480.78;7299199;19;137079;-48
2022/01/17 05:22:18;;;;;;;10.70;9.80;;;;;;;23.49;24.40;95482.19;7284972;19;137955;-50
2022/01/17 05:24:45;;;;;;;10.00;9.30;;;;;;;23.44;25.22;95492.94;7296153;19;137527;-49
2022/01/17 05:27:11;;;;;;;11.57;10.57;;;;;;;23.43;24.67;95489.50;7298180;19;138271;-49
2022/01/17 05:29:37;;;;;;;11.13;10.10;;;;;;;23.38;25.11;95490.41;7299239;19;137478;-49
2022/01/17 05:32:03;;;;;;;11.17;10.13;;;;;;;23.36;25.00;95489.13;7295586;19;138529;-49
2022/01/17 05:34:29;;;;;;;11.07;9.97;;;;;;;23.35;24.80;95490.19;7280667;19;137032;-49
2022/01/17 05:36:55;;;;;;;10.93;9.97;;;;;;;23.29;24.67;95486.81;7294624;19;137489;-49
2022/01/17 05:39:20;;;;;;;11.50;10.50;;;;;;;23.20;24.91;95477.94;7295547;19;137832;-49
2022/01/17 05:41:46;;;;;;;12.20;11.20;;;;;;;23.16;24.92;95484.16;7294244;19;137029;-48
2022/01/17 05:44:12;;;;;;;11.97;10.90;;;;;;;23.14;25.19;95481.00;7284311;19;137071;-48
2022/01/17 05:46:37;;;;;;;11.47;10.57;;;;;;;23.11;24.54;95482.38;7297027;19;138596;-49
2022/01/17 05:49:03;;;;;;;14.60;11.50;;;;;;;23.09;25.13;95496.00;7297912;19;137728;-50
2022/01/17 05:51:29;;;;;;;12.33;11.30;;;;;;;23.07;25.21;95489.38;7298494;19;137732;-49
2022/01/17 05:53:54;;;;;;;12.87;11.77;;;;;;;23.04;25.10;95485.44;7295743;19;137094;-49
2022/01/17 05:56:20;;;;;;;12.50;11.33;;;;;;;23.04;24.65;95500.63;7282751;19;136960;-49
2022/01/17 05:58:45;;;;;;;13.10;12.00;;;;;;;23.01;24.65;95509.19;7297962;19;137843;-49
2022/01/17 06:01:13;;;;;;;13.30;12.10;;;;;;;23.00;25.18;95504.94;7297538;19;137604;-49
2022/01/17 06:03:38;;;;;;;13.97;12.57;;;;;;;22.99;24.72;95506.81;7297028;19;137355;-49
2022/01/17 06:06:05;;;;;;;13.00;11.87;;;;;;;22.99;24.82;95522.81;7285590;19;136915;-49
2022/01/17 06:08:31;;;;;;;13.63;12.50;;;;;;;22.98;24.64;95509.78;7296998;19;137772;-50
2022/01/17 06:10:57;;;;;;;13.57;12.43;;;;;;;22.97;25.18;95516.97;7296982;19;136892;-50
2022/01/17 06:13:22;;;;;;;13.33;12.23;;;;;;;22.98;24.57;95523.91;7297839;19;137303;-50
2022/01/17 06:15:48;;;;;;;14.13;13.03;;;;;;;22.96;24.32;95518.06;7297601;19;137912;-50
2022/01/17 06:18:13;;;;;;;13.57;12.37;;;;;;;22.96;24.72;95520.72;7282906;19;137647;-49
2022/01/17 06:20:39;;;;;;;13.77;12.67;;;;;;;22.97;24.82;95511.66;7297226;19;137309;-49
2022/01/17 06:23:04;;;;;;;13.17;11.97;;;;;;;23.05;24.79;95510.22;7294512;19;136819;-50
2022/01/17 06:25:30;;;;;;;12.80;11.60;;;;;;;23.14;24.09;95512.97;7296162;19;136919;-49
2022/01/17 06:27:55;;;;;;;12.90;11.90;;;;;;;23.20;24.26;95520.59;7282918;19;137562;-50
2022/01/17 06:30:21;;;;;;;13.17;12.10;;;;;;;23.23;23.69;95519.22;7295775;19;136833;-50
2022/01/17 06:32:46;;;;;;;13.03;12.03;;;;;;;23.24;23.53;95521.59;7295797;19;136802;-50
2022/01/17 06:35:12;;;;;;;12.20;11.20;;;;;;;23.28;23.51;95519.13;7296379;19;138059;-49
2022/01/17 06:37:39;;;;;;;12.87;11.73;;;;;;;23.29;23.87;95521.47;7296424;19;137329;-49
2022/01/17 06:40:07;;;;;;;12.87;11.87;;;;;;;23.29;23.60;95526.03;7281337;19;137050;-48
2022/01/17 06:42:34;;;;;;;12.50;11.50;;;;;;;23.31;23.88;95508.66;7292592;19;136709;-49
2022/01/17 06:45:04;;;;;;;12.57;11.53;;;;;;;23.33;23.86;95524.34;7296423;19;137404;-49
2022/01/17 06:47:33;;;;;;;13.20;12.10;;;;;;;23.33;23.08;95522.47;7294575;19;137324;-49
2022/01/17 06:49:59;;;;;;;12.30;11.30;;;;;;;23.33;23.75;95529.69;7283333;19;137824;-50
2022/01/17 06:52:24;;;;;;;13.00;11.87;;;;;;;23.34;23.43;95534.72;7295598;19;137668;-50
2022/01/17 06:54:52;;;;;;;13.23;12.13;;;;;;;23.37;23.67;95533.34;7293038;19;137730;-49
2022/01/17 06:57:18;;;;;;;12.80;11.80;;;;;;;23.36;23.13;95521.91;7294912;19;137859;-49
2022/01/17 06:59:43;;;;;;;14.13;12.93;;;;;;;23.49;23.27;95525.63;7295492;19;137052;-49
2022/01/17 07:02:09;;;;;;;19.57;17.93;;;;;;;23.95;23.21;95522.09;7281590;19;137125;-50
2022/01/17 07:04:34;;;;;;;23.37;21.33;;;;;;;24.15;23.07;95521.66;7295165;19;136975;-50
2022/01/17 07:07:01;;;;;;;22.80;20.90;;;;;;;24.25;23.46;95518.78;7295353;19;137671;-50
2022/01/17 07:09:29;;;;;;;20.90;19.20;;;;;;;24.26;23.61;95523.00;7294652;19;136643;-50
2022/01/17 07:11:58;;;;;;;19.23;17.57;;;;;;;24.30;23.21;95516.00;7281784;19;137255;-49
2022/01/17 07:14:27;;;;;;;18.67;17.17;;;;;;;24.36;22.86;95523.91;7294987;19;138113;-50
2022/01/17 07:16:53;;;;;;;19.33;17.70;;;;;;;24.75;22.78;95539.28;7294361;19;137480;-50
2022/01/17 07:19:19;;;;;;;18.30;16.70;;;;;;;25.01;22.07;95539.47;7294956;19;136821;-50
2022/01/17 07:21:44;;;;;;;17.37;16.07;;;;;;;24.98;22.07;95543.53;7294700;19;138135;-50
2022/01/17 07:24:10;;;;;;;16.83;15.53;;;;;;;24.80;22.41;95547.97;7280999;19;136860;-50
2022/01/17 07:26:36;;;;;;;18.10;16.60;;;;;;;24.72;22.53;95559.41;7292199;19;137669;-50
2022/01/17 07:29:05;;;;;;;17.73;16.13;;;;;;;24.67;22.50;95566.72;7294436;19;137439;-50
2022/01/17 07:31:32;;;;;;;16.70;15.30;;;;;;;24.66;22.80;95555.25;7294060;19;136966;-50
2022/01/17 07:33:57;;;;;;;17.03;15.63;;;;;;;24.69;22.56;95548.50;7281514;19;137893;-50
2022/01/17 07:36:23;;;;;;;16.33;14.93;;;;;;;24.69;22.45;95543.97;7294462;19;136860;-50
2022/01/17 07:38:49;;;;;;;16.53;15.07;;;;;;;24.72;22.81;95529.22;7293706;19;137281;-50
2022/01/17 07:41:15;;;;;;;16.20;14.90;;;;;;;24.71;22.48;95520.41;7294558;19;136659;-50
2022/01/17 07:43:41;;;;;;;16.03;14.63;;;;;;;24.73;22.25;95531.59;7292174;19;137720;-50
2022/01/17 07:46:17;;;;;;;16.27;14.87;;;;;;;24.71;22.90;95522.31;7279255;19;137252;-50
2022/01/17 07:49:09;;;;;;;15.93;14.53;;;;;;;24.73;22.25;95531.59;7294193;19;137803;-50
2022/01/17 07:51:36;;;;;;;16.43;15.13;;;;;;;24.72;22.64;95554.06;7294261;19;138072;-50
2022/01/17 07:54:04;;;;;;;14.63;13.50;;;;;;;24.73;22.54;95544.94;7292588;19;137360;-50
2022/01/17 07:56:32;;;;;;;15.00;13.80;;;;;;;24.73;22.54;95569.00;7284587;19;139789;-50
2022/01/17 07:58:57;;;;;;;16.13;14.87;;;;;;;24.72;22.09;95596.81;7300531;19;137032;-53
2022/01/17 08:01:23;;;;;;;16.10;14.70;;;;;;;24.70;22.88;95624.94;7300739;19;137449;-50
2022/01/17 08:03:49;;;;;;;15.77;14.43;;;;;;;24.67;23.00;95618.28;7298660;19;137177;-50
2022/01/17 08:06:14;;;;;;;14.70;13.50;;;;;;;24.66;22.35;95595.34;7300710;19;137501;-50
2022/01/17 08:08:40;;;;;;;15.27;14.00;;;;;;;24.65;22.90;95592.97;7285535;19;137834;-50
2022/01/17 08:11:05;;;;;;;15.20;13.93;;;;;;;24.64;22.56;95559.31;7300468;19;137019;-50
2022/01/17 08:13:31;;;;;;;15.20;13.90;;;;;;;24.62;22.75;95540.13;7300334;19;137479;-50
2022/01/17 08:15:56;;;;;;;15.60;14.30;;;;;;;24.58;22.84;95529.28;7299561;19;137040;-50
2022/01/17 08:18:22;;;;;;;13.90;12.70;;;;;;;24.57;22.63;95525.03;7287885;19;138455;-49
2022/01/17 08:20:47;;;;;;;13.93;12.80;;;;;;;24.53;23.17;95521.38;7300672;19;137706;-51
2022/01/17 08:23:13;;;;;;;14.23;13.03;;;;;;;24.53;22.49;95505.34;7297815;19;137969;-50
2022/01/17 08:25:39;;;;;;;14.10;13.00;;;;;;;24.50;22.92;95538.78;7300623;19;137414;-51
2022/01/17 08:28:05;;;;;;;14.67;13.47;;;;;;;24.50;23.03;95586.09;7300876;19;137635;-50
2022/01/17 08:30:33;;;;;;;13.50;12.40;;;;;;;24.50;22.78;95610.91;7284752;19;137358;-50
2022/01/17 08:33:00;;;;;;;14.60;13.30;;;;;;;24.50;22.87;95631.50;7300326;19;137686;-52
2022/01/17 08:35:26;;;;;;;13.70;12.60;;;;;;;24.51;22.91;95652.56;7299640;19;137001;-51
2022/01/17 08:37:52;;;;;;;14.10;12.90;;;;;;;24.49;22.95;95660.09;7299255;19;137835;-50
2022/01/17 08:40:18;;;;;;;12.07;11.13;;;;;;;24.48;23.00;95618.44;7286644;19;138071;-50
2022/01/17 08:42:44;;;;;;;12.77;11.67;;;;;;;24.48;23.16;95591.72;7297784;19;137094;-50
2022/01/17 08:45:13;;;;;;;13.13;12.03;;;;;;;24.46;23.46;95609.16;7298752;19;137460;-51
2022/01/17 08:47:39;;;;;;;13.20;12.10;;;;;;;24.45;22.81;95576.31;7299044;19;137051;-50
2022/01/17 08:50:06;;;;;;;12.87;11.77;;;;;;;24.45;23.46;95562.16;7298878;19;136947;-51
2022/01/17 08:52:32;;;;;;;12.43;11.43;;;;;;;24.42;23.64;95554.75;7285075;19;139695;-50
2022/01/17 08:54:58;;;;;;;12.20;11.20;;;;;;;24.42;23.26;95509.34;7296648;19;138075;-50
2022/01/17 08:57:25;;;;;;;11.83;10.80;;;;;;;24.38;23.33;95497.69;7298929;19;137754;-50
2022/01/17 08:59:51;;;;;;;11.13;10.23;;;;;;;24.36;23.18;95513.25;7299140;19;137001;-50
2022/01/17 09:02:17;;;;;;;11.70;10.80;;;;;;;24.33;23.00;95519.16;7283646;19;138338;-50
2022/01/17 09:04:42;;;;;;;11.73;10.73;;;;;;;24.30;23.10;95483.16;7298443;19;137650;-51
2022/01/17 09:07:13;;;;;;;10.67;9.77;;;;;;;24.28;23.55;95448.72;7297889;19;137139;-50
2022/01/17 09:09:41;;;;;;;10.53;9.73;;;;;;;24.26;23.36;95456.25;7297634;19;137221;-51
2022/01/17 09:12:09;;;;;;;11.63;10.60;;;;;;;24.26;23.40;95442.91;7298802;19;137194;-49
2022/01/17 09:14:36;;;;;;;11.67;10.57;;;;;;;24.24;23.74;95442.44;7284217;19;137585;-50
2022/01/17 09:17:03;;;;;;;10.73;9.90;;;;;;;24.24;23.82;95442.44;7298249;19;137091;-50
2022/01/17 09:19:28;;;;;;;10.80;9.97;;;;;;;24.22;23.10;95457.16;7296803;19;137444;-49
2022/01/17 09:21:54;;;;;;;11.50;10.40;;;;;;;24.23;23.37;95445.41;7298147;19;138192;-50
2022/01/17 09:24:20;;;;;;;10.60;9.80;;;;;;;24.23;23.59;95435.50;7281907;19;139459;-47
2022/01/17 09:26:46;;;;;;;10.53;9.73;;;;;;;24.24;23.80;95431.75;7297660;19;136923;-48
2022/01/17 09:29:12;;;;;;;11.10;10.20;;;;;;;24.23;23.66;95429.38;7298306;19;136931;-48
2022/01/17 09:31:38;;;;;;;10.23;9.43;;;;;;;24.23;23.38;95459.53;7297417;19;137667;-49
2022/01/17 09:34:04;;;;;;;10.17;9.37;;;;;;;24.24;23.64;95444.31;7298044;19;137033;-48
2022/01/17 09:36:33;;;;;;;11.13;10.23;;;;;;;24.21;23.65;95453.72;7283482;19;137376;-51
2022/01/17 09:38:59;;;;;;;11.00;10.10;;;;;;;24.24;23.15;95457.66;7297963;19;138045;-48
2022/01/17 09:41:25;;;;;;;10.30;9.50;;;;;;;24.25;23.89;95448.56;7295625;19;137491;-49
2022/01/17 09:43:51;;;;;;;10.30;9.43;;;;;;;24.26;23.61;95463.47;7295369;19;137415;-49
2022/01/17 09:46:21;;;;;;;9.90;9.10;;;;;;;24.27;23.22;95457.84;7284590;19;138918;-50
2022/01/17 09:48:49;;;;;;;10.13;9.30;;;;;;;24.29;23.23;95455.69;7297285;19;136995;-49
2022/01/17 09:51:38;;;;;;;10.50;9.60;;;;;;;24.30;23.51;95449.25;7297512;19;137636;-50
2022/01/17 09:54:05;;;;;;;9.90;9.10;;;;;;;24.30;24.02;95457.25;7295492;19;137126;-49
2022/01/17 09:56:31;;;;;;;9.87;9.07;;;;;;;24.31;23.36;95463.38;7297080;19;137056;-50
2022/01/17 09:58:58;;;;;;;10.27;9.47;;;;;;;24.31;23.43;95468.72;7283570;19;138662;-50
2022/01/17 10:01:25;;;;;;;9.53;8.80;;;;;;;24.32;23.53;95470.31;7296051;19;138201;-50
2022/01/17 10:03:52;;;;;;;9.00;8.30;;;;;;;24.30;23.49;95467.94;7295013;19;137669;-49
2022/01/17 10:06:19;;;;;;;10.10;9.23;;;;;;;24.34;23.54;95467.31;7297440;19;137779;-50
2022/01/17 10:08:44;;;;;;;9.37;8.67;;;;;;;24.33;24.06;95484.44;7282244;19;137035;-50
2022/01/17 10:11:16;;;;;;;9.70;8.90;;;;;;;24.35;24.17;95475.03;7294661;19;137371;-50
2022/01/17 10:13:45;;;;;;;9.40;8.50;;;;;;;24.37;23.91;95466.75;7296908;19;137530;-50
2022/01/17 10:16:19;;;;;;;9.00;8.30;;;;;;;24.36;23.78;95487.31;7295995;19;137135;-50
2022/01/17 10:18:54;;;;;;;8.97;8.27;;;;;;;24.35;23.85;95490.25;7294246;19;137089;-49
2022/01/17 10:21:47;;;;;;;9.03;8.17;;;;;;;24.35;24.22;95476.91;7283450;19;137392;-49
2022/01/17 10:30:24;;;;;;;9.60;8.70;;;;;;;24.17;23.76;95463.41;7296262;19;137680;-49
2022/01/17 10:35:33;;;;;;;9.10;8.40;;;;;;;24.19;23.93;95450.56;7294504;19;137055;-50
2022/01/17 10:38:00;;;;;;;9.13;8.33;;;;;;;24.22;24.32;95443.81;7296183;19;137963;-50
2022/01/17 10:40:28;;;;;;;8.70;8.00;;;;;;;24.21;23.93;95458.25;7296483;19;136959;-52
2022/01/17 10:42:55;;;;;;;9.20;8.50;;;;;;;24.06;24.56;95446.06;7281557;19;137073;-50
2022/01/17 10:45:33;;;;;;;9.73;8.73;;;;;;;23.99;24.63;95454.47;7295371;19;137315;-49
2022/01/17 10:48:01;;;;;;;9.77;8.97;;;;;;;23.95;24.68;95450.81;7294810;19;136988;-50
2022/01/17 10:50:31;;;;;;;8.70;8.00;;;;;;;23.92;24.93;95447.97;7297341;19;137428;-51
2022/01/17 10:53:03;;;;;;;9.30;8.50;;;;;;;23.88;24.62;95445.13;7281952;19;137341;-50
2022/01/17 10:55:42;;;;;;;8.97;8.20;;;;;;;23.86;24.82;95438.50;7293157;19;137440;-51
2022/01/17 10:58:11;;;;;;;8.70;8.00;;;;;;;23.84;24.70;95460.13;7296669;19;137416;-56
2022/01/17 11:00:44;;;;;;;8.37;7.77;;;;;;;23.84;25.26;95456.66;7295500;19;137067;-50
2022/01/17 11:03:12;;;;;;;8.53;7.83;;;;;;;23.83;25.13;95457.75;7283184;19;138042;-54
2022/01/17 11:05:44;;;;;;;8.40;7.43;;;;;;;23.81;24.88;95450.06;7295069;19;137598;-50
2022/01/17 11:08:09;;;;;;;8.60;7.80;;;;;;;23.82;25.14;95450.84;7295447;19;137216;-50
2022/01/17 11:10:43;;;;;;;8.43;7.73;;;;;;;23.80;25.32;95450.38;7295045;19;137014;-50
2022/01/17 11:13:14;;;;;;;8.03;7.43;;;;;;;23.80;24.58;95445.03;7295561;19;137623;-50
2022/01/17 11:15:43;;;;;;;7.80;7.20;;;;;;;23.79;24.86;95435.44;7282301;19;140692;-50
2022/01/17 11:18:16;;;;;;;7.70;7.10;;;;;;;23.76;24.69;95430.72;7295016;19;137297;-50
2022/01/17 11:20:42;;;;;;;7.47;6.87;;;;;;;23.72;25.40;95429.75;7292662;19;136864;-50
2022/01/17 11:23:08;;;;;;;7.53;6.90;;;;;;;23.72;24.66;95424.41;7294144;19;136885;-50
2022/01/17 11:25:36;;;;;;;7.40;6.70;;;;;;;23.70;25.44;95401.47;7283241;19;140439;-50
2022/01/17 11:28:05;;;;;;;7.07;6.57;;;;;;;23.67;25.25;95395.94;7292966;19;137323;-50
2022/01/17 11:30:34;;;;;;;6.87;6.37;;;;;;;23.67;25.50;95391.38;7301837;19;137540;-50
2022/01/17 11:33:03;;;;;;;6.73;6.23;;;;;;;23.65;24.89;95388.25;7302086;19;137623;-50
2022/01/17 11:35:31;;;;;;;7.43;6.83;;;;;;;23.61;25.27;95403.28;7300614;19;138457;-50